< < Back
Terminal Aerodrome Forecast


Current Version              Previous Versions:   1  2  3  4  5  6  7  8  9  

Terminal Aerodrome Forecast

153
FTUS44 KBMX 270520
TAFBHM
TAF
KBHM 270520Z 2706/2806 16005KT P6SM BKN250
     FM271500 16008KT P6SM BKN050 BKN250=

Latest METAR

116
SAUS70 KWBC 272200
MTRBHM
METAR KBHM 272150Z 19006KT 10SM FEW060 OVC250 31/16 A2998 RMK SLPNO
T03080160


USA.gov is the U.S. government's official web portal to all federal, state and local government web resources and services.